Time;durP1;ratioP1;P1;durP2;ratioP2;P2;SDS_P1;SDS_P2;PMS_P1;PMS_P2;Temp;Humidity;BMP_temperature;BMP_pressure;BME280_temperature;BME280_humidity;BME280_pressure;Samples;Min_cycle;Max_cycle;Signal;HPM_P1;HPM_P2
2023/05/08 00:00:55;;;;;;;18.00;15.40;;;;;;;-148.88;100.00;-17125.47;5016333;28;20034;-84
2023/05/08 00:03:22;;;;;;;14.93;8.75;;;;;;;-148.88;100.00;-17125.47;4999209;28;20444;-84
2023/05/08 00:05:48;;;;;;;17.65;15.30;;;;;;;-148.88;100.00;-17125.47;5015971;28;20030;-85
2023/05/08 00:08:13;;;;;;;17.77;15.32;;;;;;;-148.88;100.00;-17125.47;4998734;28;20113;-84
2023/05/08 00:10:38;;;;;;;14.35;8.38;;;;;;;-148.88;100.00;-17125.47;5016410;28;20500;-84
2023/05/08 00:13:03;;;;;;;18.75;16.33;;;;;;;-148.88;100.00;-17125.47;5016535;28;20117;-84
2023/05/08 00:15:29;;;;;;;16.35;8.48;;;;;;;-148.88;100.00;-17125.47;5016208;28;20018;-84
2023/05/08 00:17:54;;;;;;;17.42;15.02;;;;;;;-148.88;100.00;-17125.47;4998423;28;20476;-84
2023/05/08 00:20:19;;;;;;;18.77;16.00;;;;;;;-148.88;100.00;-17125.47;4998554;28;20044;-84
2023/05/08 00:22:45;;;;;;;17.70;15.18;;;;;;;-148.88;100.00;-17125.47;4998179;28;20056;-84
2023/05/08 00:25:10;;;;;;;17.63;14.93;;;;;;;-148.88;100.00;-17125.47;5015956;28;20111;-84
2023/05/08 00:27:35;;;;;;;17.67;14.90;;;;;;;-148.88;100.00;-17125.47;4997945;28;20411;-85
2023/05/08 00:30:01;;;;;;;16.80;15.00;;;;;;;-148.88;100.00;-17125.47;5016035;28;20037;-84
2023/05/08 00:32:26;;;;;;;18.65;16.65;;;;;;;-148.88;100.00;-17125.47;4998944;28;20563;-84
2023/05/08 00:34:51;;;;;;;16.70;14.40;;;;;;;-148.88;100.00;-17125.47;4999116;28;20448;-84
2023/05/08 00:37:17;;;;;;;13.23;7.80;;;;;;;-148.88;100.00;-17125.47;5015782;28;20029;-84
2023/05/08 00:39:42;;;;;;;14.90;8.32;;;;;;;-148.88;100.00;-17125.47;5015371;28;20030;-84
2023/05/08 00:42:07;;;;;;;14.82;8.68;;;;;;;-148.88;100.00;-17125.47;4997790;28;20040;-84
2023/05/08 00:44:33;;;;;;;16.10;13.88;;;;;;;-148.88;100.00;-17125.47;4997722;28;20029;-84
2023/05/08 00:46:58;;;;;;;16.83;14.98;;;;;;;-148.88;100.00;-17125.47;5015550;28;20445;-84
2023/05/08 00:49:24;;;;;;;16.42;14.02;;;;;;;-148.88;100.00;-17125.47;4998008;28;20032;-83
2023/05/08 00:51:53;;;;;;;14.75;13.25;;;;;;;-148.88;100.00;-17125.47;4997994;28;20022;-84
2023/05/08 00:54:19;;;;;;;16.05;13.93;;;;;;;-148.88;100.00;-17125.47;5015502;28;20034;-84
2023/05/08 00:56:44;;;;;;;18.40;7.60;;;;;;;-148.88;100.00;-17125.47;4997887;28;20030;-84
2023/05/08 00:59:15;;;;;;;14.27;8.18;;;;;;;-148.88;100.00;-17125.47;4997741;28;20037;-84
2023/05/08 01:01:42;;;;;;;13.32;7.35;;;;;;;-148.88;100.00;-17125.47;4998187;28;20484;-84
2023/05/08 01:04:08;;;;;;;15.77;13.10;;;;;;;-148.88;100.00;-17125.47;4998132;28;20026;-84
2023/05/08 01:06:35;;;;;;;14.60;13.10;;;;;;;-148.88;100.00;-17125.47;5015249;28;20105;-84
2023/05/08 01:09:01;;;;;;;15.60;7.25;;;;;;;-148.88;100.00;-17125.47;5015123;28;20484;-84
2023/05/08 01:11:43;;;;;;;15.68;12.60;;;;;;;-148.88;100.00;-17125.47;5015057;28;20028;-83
2023/05/08 01:14:35;;;;;;;14.70;12.55;;;;;;;-148.88;100.00;-17125.47;4998151;28;20025;-83
2023/05/08 01:17:26;;;;;;;15.43;13.52;;;;;;;-148.88;100.00;-17125.47;5015340;28;20022;-84
2023/05/08 01:20:14;;;;;;;15.15;6.97;;;;;;;-148.88;100.00;-17125.47;5015313;28;20534;-83
2023/05/08 01:22:57;;;;;;;14.20;7.63;;;;;;;-148.88;100.00;-17125.47;5015415;28;20493;-85
2023/05/08 01:26:08;;;;;;;14.55;7.88;;;;;;;-148.88;100.00;-17125.47;5016448;28;20096;-84
2023/05/08 01:28:45;;;;;;;14.68;13.02;;;;;;;-148.88;100.00;-17125.47;5016305;28;20510;-84
2023/05/08 01:31:37;;;;;;;14.77;7.90;;;;;;;-148.88;100.00;-17125.47;5016047;28;20484;-84
2023/05/08 01:34:10;;;;;;;15.20;12.60;;;;;;;-148.88;100.00;-17125.47;5016196;28;20041;-84
2023/05/08 01:36:49;;;;;;;16.15;13.52;;;;;;;-148.88;100.00;-17125.47;4998109;28;20026;-84
2023/05/08 01:39:33;;;;;;;14.88;13.20;;;;;;;-148.88;100.00;-17125.47;5014864;28;20389;-84
2023/05/08 01:42:17;;;;;;;11.43;7.47;;;;;;;-148.88;100.00;-17125.47;5015424;28;20040;-84
2023/05/08 01:44:55;;;;;;;12.93;7.50;;;;;;;-148.88;100.00;-17125.47;4997581;28;20029;-84
2023/05/08 01:47:24;;;;;;;14.25;7.78;;;;;;;-148.88;100.00;-17125.47;5014629;28;20030;-84
2023/05/08 01:50:04;;;;;;;12.00;7.28;;;;;;;-148.88;100.00;-17125.47;5014523;28;20357;-84
2023/05/08 01:52:39;;;;;;;15.65;8.68;;;;;;;-148.88;100.00;-17125.47;5014706;28;20076;-84
2023/05/08 01:55:10;;;;;;;14.85;7.82;;;;;;;-148.88;100.00;-17125.47;5014736;28;20061;-84
2023/05/08 01:57:38;;;;;;;13.75;7.38;;;;;;;-148.88;100.00;-17125.47;5013973;28;20029;-84
2023/05/08 02:00:06;;;;;;;14.43;12.93;;;;;;;-148.88;100.00;-17125.47;4997091;28;20018;-84
2023/05/08 02:02:33;;;;;;;15.27;13.65;;;;;;;-148.88;100.00;-17125.47;4997415;28;20072;-84
2023/05/08 02:05:03;;;;;;;12.02;7.32;;;;;;;-148.88;100.00;-17125.47;4997487;28;20029;-84
2023/05/08 02:07:29;;;;;;;15.48;13.30;;;;;;;-148.88;100.00;-17125.47;4998562;28;20116;-84
2023/05/08 02:09:56;;;;;;;14.20;8.10;;;;;;;-148.88;100.00;-17125.47;5015464;28;20053;-84
2023/05/08 02:12:23;;;;;;;13.80;8.18;;;;;;;-148.88;100.00;-17125.47;4998247;28;20030;-84
2023/05/08 02:14:52;;;;;;;15.55;13.45;;;;;;;-148.88;100.00;-17125.47;5015684;28;20030;-84
2023/05/08 02:17:18;;;;;;;17.05;14.15;;;;;;;-148.88;100.00;-17125.47;5015813;28;20033;-84
2023/05/08 02:19:44;;;;;;;16.05;7.43;;;;;;;-148.88;100.00;-17125.47;5014750;28;20032;-85
2023/05/08 02:22:10;;;;;;;12.65;7.47;;;;;;;-148.88;100.00;-17125.47;5014111;28;20384;-84
2023/05/08 02:24:37;;;;;;;15.38;7.47;;;;;;;-148.88;100.00;-17125.47;4997040;28;20137;-84
2023/05/08 02:27:04;;;;;;;15.68;14.07;;;;;;;-148.88;100.00;-17125.47;5013475;28;20124;-85
2023/05/08 02:29:30;;;;;;;16.63;14.02;;;;;;;-148.88;100.00;-17125.47;4996550;28;20076;-83
2023/05/08 02:31:56;;;;;;;15.77;13.95;;;;;;;-148.88;100.00;-17125.47;4996560;28;20083;-84
2023/05/08 02:34:23;;;;;;;17.15;14.73;;;;;;;-148.88;100.00;-17125.47;5013891;28;20026;-84
2023/05/08 02:36:51;;;;;;;13.50;7.88;;;;;;;-148.88;100.00;-17125.47;5014026;28;20431;-85
2023/05/08 02:39:18;;;;;;;15.55;13.02;;;;;;;-148.88;100.00;-17125.47;4996481;28;20476;-84
2023/05/08 02:41:43;;;;;;;17.75;14.38;;;;;;;-148.88;100.00;-17125.47;5014741;28;20457;-84
2023/05/08 02:44:09;;;;;;;14.93;7.93;;;;;;;-148.88;100.00;-17125.47;4996648;28;20075;-84
2023/05/08 02:46:45;;;;;;;17.40;14.52;;;;;;;-148.88;100.00;-17125.47;5013989;28;20017;-84
2023/05/08 02:49:28;;;;;;;15.10;8.07;;;;;;;-148.88;100.00;-17125.47;5014039;28;20401;-85
2023/05/08 02:52:17;;;;;;;17.20;8.25;;;;;;;-148.88;100.00;-17125.47;4996551;28;20496;-85
2023/05/08 02:55:03;;;;;;;17.30;13.98;;;;;;;-148.88;100.00;-17125.47;5014378;28;20049;-84
2023/05/08 02:57:47;;;;;;;17.65;14.80;;;;;;;-148.88;100.00;-17125.47;5013687;28;20097;-85
2023/05/08 03:00:21;;;;;;;14.15;7.53;;;;;;;-148.88;100.00;-17125.47;5013546;28;20481;-84
2023/05/08 03:02:51;;;;;;;14.00;8.18;;;;;;;-148.88;100.00;-17125.47;4996359;28;20068;-84
2023/05/08 03:05:19;;;;;;;14.68;8.05;;;;;;;-148.88;100.00;-17125.47;5013585;28;20033;-84
2023/05/08 03:07:54;;;;;;;15.80;8.45;;;;;;;-148.88;100.00;-17125.47;5015231;28;20022;-83
2023/05/08 03:10:23;;;;;;;12.52;7.72;;;;;;;-148.88;100.00;-17125.47;5017797;28;20026;-84
2023/05/08 03:12:52;;;;;;;13.45;7.85;;;;;;;-148.88;100.00;-17125.47;5000110;28;20034;-84
2023/05/08 03:15:24;;;;;;;15.43;13.80;;;;;;;-148.88;100.00;-17125.47;5000055;28;20022;-84
2023/05/08 03:17:54;;;;;;;14.48;7.50;;;;;;;-148.88;100.00;-17125.47;5017531;28;20030;-84
2023/05/08 03:20:21;;;;;;;14.05;8.18;;;;;;;-148.88;100.00;-17125.47;5017270;28;20400;-84
2023/05/08 03:22:48;;;;;;;16.65;14.43;;;;;;;-148.88;100.00;-17125.47;4999892;28;20113;-85
2023/05/08 03:25:15;;;;;;;14.65;7.47;;;;;;;-148.88;100.00;-17125.47;4999566;28;20033;-87
2023/05/08 03:27:42;;;;;;;15.93;13.68;;;;;;;-148.88;100.00;-17125.47;5018023;28;20038;-87
2023/05/08 03:30:09;;;;;;;16.85;13.55;;;;;;;-148.88;100.00;-17125.47;4999440;28;20018;-87
2023/05/08 03:32:36;;;;;;;14.63;7.25;;;;;;;-148.88;100.00;-17125.47;5000644;28;20096;-85
2023/05/08 03:35:04;;;;;;;16.75;14.35;;;;;;;-148.88;100.00;-17125.47;4999463;28;20025;-85
2023/05/08 03:37:29;;;;;;;16.73;7.80;;;;;;;-148.88;100.00;-17125.47;5016933;28;20033;-86
2023/05/08 03:39:55;;;;;;;15.85;14.10;;;;;;;-148.88;100.00;-17125.47;4999585;28;20026;-85
2023/05/08 03:42:23;;;;;;;13.25;7.55;;;;;;;-148.88;100.00;-17125.47;5016964;28;20104;-86
2023/05/08 03:44:52;;;;;;;14.23;8.38;;;;;;;-148.88;100.00;-17125.47;5016979;28;20025;-85
2023/05/08 03:47:19;;;;;;;16.85;14.32;;;;;;;-148.88;100.00;-17125.47;5017075;28;20424;-84
2023/05/08 03:49:45;;;;;;;17.75;14.70;;;;;;;-148.88;100.00;-17125.47;5017106;28;20017;-84
2023/05/08 03:52:12;;;;;;;13.57;7.72;;;;;;;-148.88;100.00;-17125.47;5016962;28;20030;-84
2023/05/08 03:54:37;;;;;;;14.75;8.25;;;;;;;-148.88;100.00;-17125.47;5016751;28;20026;-84
2023/05/08 03:57:03;;;;;;;13.88;8.00;;;;;;;-148.88;100.00;-17125.47;5016577;28;20041;-85
2023/05/08 03:59:53;;;;;;;12.85;7.85;;;;;;;-148.88;100.00;-17125.47;5016710;28;20083;-85
2023/05/08 04:02:50;;;;;;;12.63;7.32;;;;;;;-148.88;100.00;-17125.47;5017237;28;20026;-85
2023/05/08 04:05:24;;;;;;;12.73;7.57;;;;;;;-148.88;100.00;-17125.47;5017197;28;20030;-84
2023/05/08 04:07:55;;;;;;;15.80;8.38;;;;;;;-148.88;100.00;-17125.47;5016622;28;20025;-85
2023/05/08 04:10:28;;;;;;;17.80;14.40;;;;;;;-148.88;100.00;-17125.47;5000653;28;20646;-85
2023/05/08 04:13:06;;;;;;;14.55;7.90;;;;;;;-148.88;100.00;-17125.47;5016830;28;20030;-85
2023/05/08 04:15:34;;;;;;;15.98;8.40;;;;;;;-148.88;100.00;-17125.47;5016266;28;20029;-85
2023/05/08 04:18:07;;;;;;;13.35;7.57;;;;;;;-148.88;100.00;-17125.47;5016958;28;20034;-84
2023/05/08 04:20:33;;;;;;;14.02;7.75;;;;;;;-148.88;100.00;-17125.47;5015969;28;20022;-87
2023/05/08 04:22:59;;;;;;;12.45;7.43;;;;;;;-148.88;100.00;-17125.47;5016295;28;20018;-86
2023/05/08 04:25:25;;;;;;;16.67;14.60;;;;;;;-148.88;100.00;-17125.47;4998748;28;20017;-87
2023/05/08 04:27:52;;;;;;;15.80;13.75;;;;;;;-148.88;100.00;-17125.47;5016840;28;20045;-86
2023/05/08 04:30:20;;;;;;;18.05;15.07;;;;;;;-148.88;100.00;-17125.47;4999331;28;20485;-86
2023/05/08 04:32:46;;;;;;;16.30;14.50;;;;;;;-148.88;100.00;-17125.47;5016427;28;20033;-85
2023/05/08 04:35:12;;;;;;;12.50;7.70;;;;;;;-148.88;100.00;-17125.47;5016564;28;20033;-88
2023/05/08 04:37:39;;;;;;;13.40;7.20;;;;;;;-148.88;100.00;-17125.47;4998684;28;20021;-86
2023/05/08 04:40:06;;;;;;;14.18;7.88;;;;;;;-148.88;100.00;-17125.47;5016421;28;20037;-87
2023/05/08 04:42:32;;;;;;;12.63;7.53;;;;;;;-148.88;100.00;-17125.47;5016600;28;20030;-88
2023/05/08 04:44:57;;;;;;;14.48;7.65;;;;;;;-148.88;100.00;-17125.47;5016103;28;20105;-87
2023/05/08 04:47:23;;;;;;;17.88;14.98;;;;;;;-148.88;100.00;-17125.47;5015735;28;20104;-87
2023/05/08 04:49:48;;;;;;;15.05;8.35;;;;;;;-148.88;100.00;-17125.47;5015859;28;20098;-89
2023/05/08 04:52:14;;;;;;;15.18;8.32;;;;;;;-148.88;100.00;-17125.47;4998605;28;20024;-87
2023/05/08 04:54:39;;;;;;;14.15;7.75;;;;;;;-148.88;100.00;-17125.47;5016005;28;20033;-87
2023/05/08 04:57:06;;;;;;;16.48;8.48;;;;;;;-148.88;100.00;-17125.47;4998418;28;20048;-86
2023/05/08 04:59:31;;;;;;;13.75;8.00;;;;;;;-148.88;100.00;-17125.47;4997878;28;20522;-86
2023/05/08 05:01:57;;;;;;;16.38;8.45;;;;;;;-148.88;100.00;-17125.47;5015627;28;20030;-86
2023/05/08 05:04:23;;;;;;;17.48;14.77;;;;;;;-148.88;100.00;-17125.47;5015784;28;20392;-86
2023/05/08 05:06:48;;;;;;;17.80;8.73;;;;;;;-148.88;100.00;-17125.47;5016184;28;20079;-86
2023/05/08 05:09:13;;;;;;;18.30;15.57;;;;;;;-148.88;100.00;-17125.47;5015711;28;20110;-87
2023/05/08 05:11:38;;;;;;;15.65;8.70;;;;;;;-148.88;100.00;-17125.47;4998394;28;20392;-85
2023/05/08 05:14:05;;;;;;;15.25;7.97;;;;;;;-148.88;100.00;-17125.47;5015967;28;20030;-88
2023/05/08 05:16:30;;;;;;;14.60;8.27;;;;;;;-148.88;100.00;-17125.47;5015457;28;20099;-88
2023/05/08 05:18:55;;;;;;;19.05;10.40;;;;;;;-148.88;100.00;-17125.47;5016022;28;20480;-88
2023/05/08 05:21:20;;;;;;;17.70;14.88;;;;;;;-148.88;100.00;-17125.47;5015559;28;20499;-88
2023/05/08 05:23:46;;;;;;;17.35;9.25;;;;;;;-148.88;100.00;-17125.47;5015711;28;20037;-87
2023/05/08 05:26:13;;;;;;;17.48;8.65;;;;;;;-148.88;100.00;-17125.47;4997958;28;20133;-87
2023/05/08 05:28:39;;;;;;;20.27;9.77;;;;;;;-148.88;100.00;-17125.47;5016005;28;20112;-87
2023/05/08 05:31:04;;;;;;;17.90;15.95;;;;;;;-148.88;100.00;-17125.47;5015104;28;20053;-88
2023/05/08 05:33:29;;;;;;;16.88;9.52;;;;;;;-148.88;100.00;-17125.47;5015376;28;20026;-86
2023/05/08 05:35:54;;;;;;;18.13;15.32;;;;;;;-148.88;100.00;-17125.47;5016110;28;20037;-87
2023/05/08 05:38:20;;;;;;;15.80;14.07;;;;;;;-148.88;100.00;-17125.47;5015212;28;20029;-88
2023/05/08 05:40:45;;;;;;;16.48;14.75;;;;;;;-148.88;100.00;-17125.47;5014999;28;20032;-87
2023/05/08 05:43:10;;;;;;;17.98;9.50;;;;;;;-148.88;100.00;-17125.47;5015037;28;20053;-87
2023/05/08 05:45:36;;;;;;;17.02;15.10;;;;;;;-148.88;100.00;-17125.47;5015233;28;20026;-87
2023/05/08 05:48:01;;;;;;;16.45;14.50;;;;;;;-148.88;100.00;-17125.47;5014937;28;20032;-87
2023/05/08 05:50:27;;;;;;;15.55;8.77;;;;;;;-148.88;100.00;-17125.47;5014841;28;20026;-87
2023/05/08 05:52:53;;;;;;;15.48;13.88;;;;;;;-148.88;100.00;-17125.47;5014804;28;20033;-87
2023/05/08 05:55:18;;;;;;;18.15;14.77;;;;;;;-148.88;100.00;-17125.47;5015099;28;20021;-86
2023/05/08 05:57:44;;;;;;;14.50;8.35;;;;;;;-148.88;100.00;-17125.47;5014556;28;20030;-88
2023/05/08 06:00:10;;;;;;;16.25;14.57;;;;;;;-148.88;100.00;-17125.47;5014383;28;20495;-87
2023/05/08 06:02:35;;;;;;;16.40;9.20;;;;;;;-148.88;100.00;-17125.47;5014258;28;20048;-88
2023/05/08 06:05:01;;;;;;;16.48;13.70;;;;;;;-148.88;100.00;-17125.47;5014860;28;20022;-88
2023/05/08 06:07:26;;;;;;;15.00;13.38;;;;;;;-148.88;100.00;-17125.47;5014125;28;20021;-88
2023/05/08 06:09:52;;;;;;;16.75;13.57;;;;;;;-148.88;100.00;-17125.47;5014088;28;20100;-87
2023/05/08 06:12:17;;;;;;;17.48;13.88;;;;;;;-148.88;100.00;-17125.47;5014188;28;20396;-87
2023/05/08 06:14:43;;;;;;;15.38;13.50;;;;;;;-148.88;100.00;-17125.47;4996506;28;20484;-88
2023/05/08 06:17:08;;;;;;;14.95;8.18;;;;;;;-148.88;100.00;-17125.47;5014100;28;20054;-88
2023/05/08 06:19:33;;;;;;;15.57;13.65;;;;;;;-148.88;100.00;-17125.47;4996418;28;20026;-88
2023/05/08 06:21:58;;;;;;;15.43;13.27;;;;;;;-148.88;100.00;-17125.47;5014190;28;20036;-87
2023/05/08 06:24:24;;;;;;;16.10;13.77;;;;;;;-148.88;100.00;-17125.47;5013976;28;20061;-87
2023/05/08 06:26:49;;;;;;;16.63;13.07;;;;;;;-148.88;100.00;-17125.47;4996079;28;20112;-87
2023/05/08 06:29:14;;;;;;;14.80;13.18;;;;;;;-148.88;100.00;-17125.47;4996365;28;20105;-88
2023/05/08 06:31:40;;;;;;;14.38;12.85;;;;;;;-148.88;100.00;-17125.47;5014158;28;20055;-88
2023/05/08 06:34:05;;;;;;;15.48;13.02;;;;;;;-148.88;100.00;-17125.47;5013775;28;20025;-88
2023/05/08 06:36:30;;;;;;;14.18;11.70;;;;;;;-148.88;100.00;-17125.47;5013861;28;20053;-87
2023/05/08 06:38:56;;;;;;;15.15;13.55;;;;;;;-148.88;100.00;-17125.47;5013584;28;20025;-88
2023/05/08 06:41:21;;;;;;;15.48;13.23;;;;;;;-148.88;100.00;-17125.47;5013633;28;20041;-88
2023/05/08 06:43:46;;;;;;;14.75;12.93;;;;;;;-148.88;100.00;-17125.47;5013484;28;20026;-88
2023/05/08 06:46:12;;;;;;;13.07;11.68;;;;;;;-148.88;100.00;-17125.47;5013428;28;20057;-89
2023/05/08 06:48:37;;;;;;;14.00;12.60;;;;;;;-148.88;100.00;-17125.47;5013895;28;20022;-88
2023/05/08 06:51:03;;;;;;;13.02;11.63;;;;;;;-148.88;100.00;-17125.47;5013454;28;20057;-88
2023/05/08 06:53:28;;;;;;;14.85;11.35;;;;;;;-148.88;100.00;-17125.47;5013578;28;20018;-88
2023/05/08 06:55:54;;;;;;;13.43;11.38;;;;;;;-148.88;100.00;-17125.47;5013405;28;20037;-88
2023/05/08 06:58:19;;;;;;;15.45;12.52;;;;;;;-148.88;100.00;-17125.47;5013398;28;20026;-87
2023/05/08 07:00:44;;;;;;;14.32;12.82;;;;;;;-148.88;99.73;-17125.47;5013459;28;20476;-88
2023/05/08 07:03:10;;;;;;;12.52;11.30;;;;;;;-148.88;99.86;-17125.47;5013499;28;20094;-88
2023/05/08 07:05:35;;;;;;;15.10;11.82;;;;;;;-148.88;99.86;-17125.47;4996589;28;20025;-90
2023/05/08 07:08:00;;;;;;;13.23;11.88;;;;;;;-148.88;99.35;-17125.47;5013202;28;20030;-88
2023/05/08 07:10:26;;;;;;;13.23;11.73;;;;;;;-148.88;100.00;-17125.47;5013346;28;20030;-88
2023/05/08 07:12:51;;;;;;;12.25;11.05;;;;;;;-148.88;98.17;-17125.47;5013545;28;20395;-89
2023/05/08 07:15:17;;;;;;;12.70;11.38;;;;;;;-148.88;98.70;-17125.47;5013284;28;20034;-88
2023/05/08 07:17:42;;;;;;;12.85;11.38;;;;;;;-148.88;98.09;-17125.47;5013244;28;20057;-88
2023/05/08 07:20:08;;;;;;;13.20;11.82;;;;;;;-148.88;97.03;-17125.47;5013232;28;20022;-89
2023/05/08 07:22:33;;;;;;;13.10;11.23;;;;;;;-148.88;96.68;-17125.47;5013244;28;20030;-89
2023/05/08 07:24:59;;;;;;;12.85;11.48;;;;;;;-148.88;97.55;-17125.47;5013155;28;20022;-88
2023/05/08 07:27:24;;;;;;;13.63;11.45;;;;;;;-148.88;97.49;-17125.47;5013165;28;20026;-89
2023/05/08 07:29:49;;;;;;;15.50;11.48;;;;;;;-148.88;96.69;-17125.47;4995612;28;20018;-88
2023/05/08 07:32:15;;;;;;;12.80;10.75;;;;;;;-148.88;95.14;-17125.47;5013112;28;20032;-88
2023/05/08 07:34:40;;;;;;;12.65;11.35;;;;;;;-148.88;98.81;-17125.47;5013257;28;20022;-88
2023/05/08 07:37:06;;;;;;;13.55;11.52;;;;;;;-148.88;95.63;-17125.47;5012983;28;20030;-88
2023/05/08 07:39:31;;;;;;;12.15;10.90;;;;;;;-148.88;95.67;-17125.47;5013136;28;20066;-88
2023/05/08 07:41:57;;;;;;;13.52;10.93;;;;;;;-148.88;95.62;-17125.47;4995558;28;20049;-88
2023/05/08 07:44:22;;;;;;;12.35;11.05;;;;;;;-148.88;94.99;-17125.47;4995730;28;20072;-88
2023/05/08 07:46:47;;;;;;;12.48;11.20;;;;;;;-148.88;95.04;-17125.47;4995476;28;20025;-88
2023/05/08 07:49:12;;;;;;;12.43;10.68;;;;;;;-148.88;95.96;-17125.47;4995432;28;20022;-88
2023/05/08 07:51:39;;;;;;;12.57;11.27;;;;;;;-148.88;94.93;-17125.47;4995877;28;20025;-88
2023/05/08 07:54:04;;;;;;;12.18;10.35;;;;;;;-148.88;94.94;-17125.47;4995915;28;20021;-88
2023/05/08 07:56:30;;;;;;;11.65;10.25;;;;;;;-148.88;95.67;-17125.47;4999162;28;20510;-88
2023/05/08 07:58:55;;;;;;;13.27;10.07;;;;;;;-148.88;95.21;-17125.47;4998972;28;20061;-88
2023/05/08 08:01:20;;;;;;;12.15;10.95;;;;;;;-148.88;94.59;-17125.47;4998814;28;20048;-88
2023/05/08 08:03:46;;;;;;;12.43;10.25;;;;;;;-148.88;93.46;-17125.47;5016438;28;20508;-88
2023/05/08 08:06:11;;;;;;;13.43;10.63;;;;;;;-148.88;95.34;-17125.47;5016199;28;20431;-88
2023/05/08 08:08:38;;;;;;;13.02;11.68;;;;;;;-148.88;92.77;-17125.47;5016260;28;20370;-87
2023/05/08 08:11:03;;;;;;;12.77;10.93;;;;;;;-148.88;92.56;-17125.47;5016264;28;20024;-87
2023/05/08 08:13:28;;;;;;;11.63;9.88;;;;;;;-148.88;90.84;-17125.47;4998640;28;20022;-88
2023/05/08 08:15:54;;;;;;;12.48;10.13;;;;;;;-148.88;92.59;-17125.47;4998545;28;20446;-88
2023/05/08 08:18:19;;;;;;;12.00;10.45;;;;;;;-148.88;90.81;-17125.47;5016334;28;20036;-89
2023/05/08 08:20:44;;;;;;;11.32;10.05;;;;;;;-148.88;89.28;-17125.47;5016241;28;20018;-88
2023/05/08 08:23:09;;;;;;;11.98;10.13;;;;;;;-148.88;90.51;-17125.47;4998498;28;20562;-88
2023/05/08 08:25:35;;;;;;;11.73;10.52;;;;;;;-148.88;92.03;-17125.47;5016126;28;20051;-87
2023/05/08 08:28:00;;;;;;;11.38;10.18;;;;;;;-148.88;89.95;-17125.47;4998180;28;20021;-88
2023/05/08 08:30:26;;;;;;;14.38;10.63;;;;;;;-148.88;93.46;-17125.47;4998475;28;20021;-88
2023/05/08 08:32:51;;;;;;;11.38;10.18;;;;;;;-148.88;90.29;-17125.47;4999242;28;20530;-88
2023/05/08 08:35:16;;;;;;;11.82;10.20;;;;;;;-148.88;89.53;-17125.47;4998664;28;20021;-88
2023/05/08 08:37:42;;;;;;;12.27;9.95;;;;;;;-148.88;90.14;-17125.47;5016157;28;20037;-88
2023/05/08 08:40:07;;;;;;;10.82;9.73;;;;;;;-148.88;87.45;-17125.47;5015997;28;20068;-88
2023/05/08 08:42:33;;;;;;;10.70;9.40;;;;;;;-148.88;88.56;-17125.47;5016052;28;20476;-88
2023/05/08 08:44:59;;;;;;;12.38;10.23;;;;;;;-148.88;89.64;-17125.47;5015826;28;20025;-88
2023/05/08 08:47:33;;;;;;;11.43;9.77;;;;;;;-148.88;88.16;-17125.47;4998220;28;20026;-88
2023/05/08 08:50:02;;;;;;;10.95;9.85;;;;;;;-148.88;88.32;-17125.47;5016164;28;20026;-88
2023/05/08 08:53:20;;;;;;;11.63;9.80;;;;;;;-148.88;86.65;-17125.47;5015900;28;20022;-88
2023/05/08 08:55:54;;;;;;;11.88;10.65;;;;;;;-148.88;88.26;-17125.47;4994605;28;20033;-88
2023/05/08 08:58:32;;;;;;;11.50;9.77;;;;;;;-148.88;89.83;-17125.47;5016458;28;20038;-88
2023/05/08 09:00:59;;;;;;;11.73;10.52;;;;;;;-148.88;86.58;-17125.47;5015678;28;20080;-89
2023/05/08 09:03:25;;;;;;;12.25;10.88;;;;;;;-148.88;84.20;-17125.47;4998110;28;20109;-88
2023/05/08 09:05:52;;;;;;;13.20;10.10;;;;;;;-148.88;83.43;-17125.47;5015148;28;20022;-89
2023/05/08 09:08:18;;;;;;;11.43;10.23;;;;;;;-148.88;86.55;-17125.47;5015431;28;20029;-88
2023/05/08 09:10:43;;;;;;;10.15;9.13;;;;;;;-148.88;82.15;-17125.47;5019036;28;20013;-88
2023/05/08 09:13:09;;;;;;;9.85;8.85;;;;;;;-148.88;82.81;-17125.47;4997528;28;20041;-89
2023/05/08 09:15:34;;;;;;;12.20;9.40;;;;;;;-148.88;79.20;-17125.47;5015286;28;20036;-88
2023/05/08 09:18:01;;;;;;;10.73;8.70;;;;;;;-148.88;81.79;-17125.47;4997516;28;20112;-89
2023/05/08 09:20:27;;;;;;;10.50;9.40;;;;;;;-148.88;79.13;-17125.47;5015216;28;20018;-89
2023/05/08 09:22:53;;;;;;;11.30;8.77;;;;;;;-148.88;76.15;-17125.47;5014958;28;20516;-89
2023/05/08 09:25:18;;;;;;;10.98;8.52;;;;;;;-148.88;80.84;-17125.47;5014864;28;20082;-88
2023/05/08 09:27:44;;;;;;;9.85;8.48;;;;;;;-148.88;80.60;-17125.47;5015367;28;20388;-90
2023/05/08 09:30:11;;;;;;;10.52;8.77;;;;;;;-148.88;76.34;-17125.47;5015179;28;20026;-89
2023/05/08 09:32:39;;;;;;;9.93;8.48;;;;;;;-148.88;75.54;-17125.47;4997442;28;20035;-89
2023/05/08 09:35:06;;;;;;;12.57;8.77;;;;;;;-148.88;77.06;-17125.47;5014730;28;20061;-89
2023/05/08 09:37:31;;;;;;;9.73;8.73;;;;;;;-148.88;75.35;-17125.47;4996925;28;20022;-88
2023/05/08 09:40:14;;;;;;;10.05;8.45;;;;;;;-148.88;73.84;-17125.47;4996960;28;20037;-87
2023/05/08 09:42:39;;;;;;;12.13;8.37;;;;;;;-148.88;76.92;-17125.47;5014609;28;20030;-88
2023/05/08 09:45:05;;;;;;;8.57;7.68;;;;;;;-148.88;72.51;-17125.47;4997044;28;20041;-88
2023/05/08 09:47:31;;;;;;;9.60;8.27;;;;;;;-148.88;72.10;-17125.47;5015073;28;20017;-88
2023/05/08 09:50:02;;;;;;;8.70;7.80;;;;;;;-148.88;75.18;-17125.47;5014964;28;20014;-87
2023/05/08 09:52:45;;;;;;;11.77;7.90;;;;;;;-148.88;75.60;-17125.47;5004083;28;20057;-88
2023/05/08 09:55:11;;;;;;;10.27;8.20;;;;;;;-148.88;72.95;-17125.47;4998221;28;20039;-87
2023/05/08 09:57:50;;;;;;;10.18;8.63;;;;;;;-148.88;72.36;-17125.47;5016254;28;20030;-88
2023/05/08 10:00:16;;;;;;;9.70;8.63;;;;;;;-148.88;71.80;-17125.47;4997130;28;20029;-87
2023/05/08 10:02:57;;;;;;;8.20;7.40;;;;;;;-148.88;71.54;-17125.47;4996603;28;20490;-88
2023/05/08 10:05:30;;;;;;;8.88;7.57;;;;;;;-148.88;70.54;-17125.47;4997154;28;20025;-89
2023/05/08 10:08:16;;;;;;;9.63;8.10;;;;;;;-148.88;72.25;-17125.47;5014241;28;20076;-88
2023/05/08 10:10:41;;;;;;;10.35;9.13;;;;;;;-148.88;70.80;-17125.47;5013951;28;20021;-87
2023/05/08 10:13:06;;;;;;;9.10;8.15;;;;;;;-148.88;73.29;-17125.47;5013819;28;20060;-87
2023/05/08 10:15:33;;;;;;;9.88;8.88;;;;;;;-148.88;71.20;-17125.47;5013851;28;20040;-88
2023/05/08 10:18:04;;;;;;;9.90;8.13;;;;;;;-148.88;72.92;-17125.47;5013184;28;20032;-88
2023/05/08 10:20:32;;;;;;;9.70;8.70;;;;;;;-148.88;69.04;-17125.47;5013803;28;20041;-88
2023/05/08 10:22:57;;;;;;;9.73;8.40;;;;;;;-148.88;69.18;-17125.47;5013665;28;20124;-87
2023/05/08 10:25:24;;;;;;;10.65;9.48;;;;;;;-148.88;70.08;-17125.47;5013742;28;20072;-87
2023/05/08 10:28:23;;;;;;;11.10;10.00;;;;;;;-148.88;74.47;-17125.47;5014123;28;20030;-88
2023/05/08 10:30:49;;;;;;;11.82;10.05;;;;;;;-148.88;75.41;-17125.47;4995931;28;20506;-88
2023/05/08 10:33:19;;;;;;;11.05;9.85;;;;;;;-148.88;74.34;-17125.47;5014254;28;20026;-87
2023/05/08 10:35:44;;;;;;;11.32;10.13;;;;;;;-148.88;82.48;-17125.47;5014144;28;20054;-88
2023/05/08 10:38:10;;;;;;;10.80;8.75;;;;;;;-148.88;79.64;-17125.47;5013400;28;20022;-88
2023/05/08 10:40:38;;;;;;;10.07;8.65;;;;;;;-148.88;73.88;-17125.47;5013860;28;20029;-88
2023/05/08 10:43:06;;;;;;;10.55;8.80;;;;;;;-148.88;72.59;-17125.47;5013561;28;20061;-87
2023/05/08 10:45:32;;;;;;;11.23;8.95;;;;;;;-148.88;71.92;-17125.47;5013448;28;20124;-88
2023/05/08 10:48:34;;;;;;;10.40;8.88;;;;;;;-148.88;65.26;-17125.47;5013826;28;20053;-88
2023/05/08 10:51:12;;;;;;;10.70;8.98;;;;;;;-148.88;65.20;-17125.47;5013769;28;20037;-87
2023/05/08 10:53:43;;;;;;;9.65;7.80;;;;;;;-148.88;67.52;-17125.47;5013651;28;20037;-88
2023/05/08 10:56:08;;;;;;;10.20;8.50;;;;;;;-148.88;66.36;-17125.47;5013380;28;20381;-88
2023/05/08 10:58:37;;;;;;;10.80;9.15;;;;;;;-148.88;66.15;-17125.47;5013168;28;20496;-86
2023/05/08 11:01:06;;;;;;;9.57;8.60;;;;;;;-148.88;64.69;-17125.47;5013343;28;20045;-88